sensor_id;sensor_type;location;lat;lon;timestamp;temperature;humidity
8043;DHT22;4064;48.132;11.366;2022-10-31T00:01:25;10.00;99.90
8043;DHT22;4064;48.132;11.366;2022-10-31T00:03:51;9.90;99.90
8043;DHT22;4064;48.132;11.366;2022-10-31T00:06:20;10.00;99.90
8043;DHT22;4064;48.132;11.366;2022-10-31T00:08:47;10.00;99.90
8043;DHT22;4064;48.132;11.366;2022-10-31T00:11:13;10.00;99.90
8043;DHT22;4064;48.132;11.366;2022-10-31T00:13:38;10.00;99.90
8043;DHT22;4064;48.132;11.366;2022-10-31T00:16:04;10.00;99.90
8043;DHT22;4064;48.132;11.366;2022-10-31T00:18:30;10.00;99.90
8043;DHT22;4064;48.132;11.366;2022-10-31T00:21:03;10.00;99.90
8043;DHT22;4064;48.132;11.366;2022-10-31T00:23:29;10.00;99.90
8043;DHT22;4064;48.132;11.366;2022-10-31T00:26:02;10.00;99.90
8043;DHT22;4064;48.132;11.366;2022-10-31T00:28:29;10.00;99.90
8043;DHT22;4064;48.132;11.366;2022-10-31T00:31:02;10.00;99.90
8043;DHT22;4064;48.132;11.366;2022-10-31T00:33:28;10.00;99.90
8043;DHT22;4064;48.132;11.366;2022-10-31T00:35:54;10.00;99.90
8043;DHT22;4064;48.132;11.366;2022-10-31T00:38:20;10.00;99.90
8043;DHT22;4064;48.132;11.366;2022-10-31T00:40:46;10.00;99.90
8043;DHT22;4064;48.132;11.366;2022-10-31T00:43:11;10.00;99.90
8043;DHT22;4064;48.132;11.366;2022-10-31T00:45:37;9.90;99.90
8043;DHT22;4064;48.132;11.366;2022-10-31T00:48:03;9.90;99.90
8043;DHT22;4064;48.132;11.366;2022-10-31T00:50:29;9.90;99.90
8043;DHT22;4064;48.132;11.366;2022-10-31T00:52:54;9.90;99.90
8043;DHT22;4064;48.132;11.366;2022-10-31T00:55:20;9.90;99.90
8043;DHT22;4064;48.132;11.366;2022-10-31T00:57:46;9.90;99.90
8043;DHT22;4064;48.132;11.366;2022-10-31T01:00:13;9.90;99.90
8043;DHT22;4064;48.132;11.366;2022-10-31T01:02:39;9.90;99.90
8043;DHT22;4064;48.132;11.366;2022-10-31T01:05:05;9.90;99.90
8043;DHT22;4064;48.132;11.366;2022-10-31T01:07:31;9.90;99.90
8043;DHT22;4064;48.132;11.366;2022-10-31T01:09:59;9.90;99.90
8043;DHT22;4064;48.132;11.366;2022-10-31T01:12:25;9.90;99.90
8043;DHT22;4064;48.132;11.366;2022-10-31T01:14:51;9.90;99.90
8043;DHT22;4064;48.132;11.366;2022-10-31T01:17:17;9.90;99.90
8043;DHT22;4064;48.132;11.366;2022-10-31T01:19:42;9.90;99.90
8043;DHT22;4064;48.132;11.366;2022-10-31T01:22:08;9.90;99.90
8043;DHT22;4064;48.132;11.366;2022-10-31T01:24:34;9.80;99.90
8043;DHT22;4064;48.132;11.366;2022-10-31T01:26:59;9.80;99.90
8043;DHT22;4064;48.132;11.366;2022-10-31T01:29:25;9.80;99.90
8043;DHT22;4064;48.132;11.366;2022-10-31T01:31:51;9.80;99.90
8043;DHT22;4064;48.132;11.366;2022-10-31T01:34:17;9.80;99.90
8043;DHT22;4064;48.132;11.366;2022-10-31T01:36:44;9.80;99.90
8043;DHT22;4064;48.132;11.366;2022-10-31T01:39:14;9.90;99.90
8043;DHT22;4064;48.132;11.366;2022-10-31T01:41:47;9.90;99.90
8043;DHT22;4064;48.132;11.366;2022-10-31T01:49:43;9.90;99.90
8043;DHT22;4064;48.132;11.366;2022-10-31T01:52:55;9.90;99.90
8043;DHT22;4064;48.132;11.366;2022-10-31T01:55:12;9.90;99.90
8043;DHT22;4064;48.132;11.366;2022-10-31T01:57:41;9.80;99.90
8043;DHT22;4064;48.132;11.366;2022-10-31T02:00:10;9.80;99.90
8043;DHT22;4064;48.132;11.366;2022-10-31T02:02:36;9.80;99.90
8043;DHT22;4064;48.132;11.366;2022-10-31T02:05:06;9.80;99.90
8043;DHT22;4064;48.132;11.366;2022-10-31T02:07:43;9.90;99.90
8043;DHT22;4064;48.132;11.366;2022-10-31T02:10:11;9.90;99.90
8043;DHT22;4064;48.132;11.366;2022-10-31T02:12:37;9.90;99.90
8043;DHT22;4064;48.132;11.366;2022-10-31T02:15:04;9.90;99.90
8043;DHT22;4064;48.132;11.366;2022-10-31T02:17:31;9.80;99.90
8043;DHT22;4064;48.132;11.366;2022-10-31T02:20:25;9.80;99.90
8043;DHT22;4064;48.132;11.366;2022-10-31T02:23:24;9.70;99.90
8043;DHT22;4064;48.132;11.366;2022-10-31T02:32:07;9.70;99.90
8043;DHT22;4064;48.132;11.366;2022-10-31T02:35:13;9.70;99.90
8043;DHT22;4064;48.132;11.366;2022-10-31T02:38:43;9.70;99.90
8043;DHT22;4064;48.132;11.366;2022-10-31T02:43:57;9.70;99.90
8043;DHT22;4064;48.132;11.366;2022-10-31T02:46:49;9.70;99.90
8043;DHT22;4064;48.132;11.366;2022-10-31T02:51:52;9.70;99.90
8043;DHT22;4064;48.132;11.366;2022-10-31T02:54:21;9.70;99.90
8043;DHT22;4064;48.132;11.366;2022-10-31T02:56:49;9.70;99.90
8043;DHT22;4064;48.132;11.366;2022-10-31T02:59:16;9.70;99.90
8043;DHT22;4064;48.132;11.366;2022-10-31T03:02:11;9.70;99.90
8043;DHT22;4064;48.132;11.366;2022-10-31T03:05:34;9.70;99.90
8043;DHT22;4064;48.132;11.366;2022-10-31T03:07:42;9.60;99.90
8043;DHT22;4064;48.132;11.366;2022-10-31T03:10:52;9.60;99.90
8043;DHT22;4064;48.132;11.366;2022-10-31T03:16:09;9.60;99.90
8043;DHT22;4064;48.132;11.366;2022-10-31T03:18:40;9.60;99.90
8043;DHT22;4064;48.132;11.366;2022-10-31T03:21:20;9.50;99.90
8043;DHT22;4064;48.132;11.366;2022-10-31T03:23:47;9.40;99.90
8043;DHT22;4064;48.132;11.366;2022-10-31T03:26:15;9.40;99.90
8043;DHT22;4064;48.132;11.366;2022-10-31T03:29:00;9.40;99.90
8043;DHT22;4064;48.132;11.366;2022-10-31T03:31:34;9.30;99.90
8043;DHT22;4064;48.132;11.366;2022-10-31T03:34:02;9.30;99.90
8043;DHT22;4064;48.132;11.366;2022-10-31T03:36:30;9.30;99.90
8043;DHT22;4064;48.132;11.366;2022-10-31T03:39:01;9.20;99.90
8043;DHT22;4064;48.132;11.366;2022-10-31T03:41:29;9.20;99.90
8043;DHT22;4064;48.132;11.366;2022-10-31T03:44:01;9.20;99.90
8043;DHT22;4064;48.132;11.366;2022-10-31T03:46:27;9.20;99.90
8043;DHT22;4064;48.132;11.366;2022-10-31T03:48:54;9.10;99.90
8043;DHT22;4064;48.132;11.366;2022-10-31T03:51:50;9.10;99.90
8043;DHT22;4064;48.132;11.366;2022-10-31T03:57:05;9.00;99.90
8043;DHT22;4064;48.132;11.366;2022-10-31T03:59:37;9.10;99.90
8043;DHT22;4064;48.132;11.366;2022-10-31T04:02:10;9.00;99.90
8043;DHT22;4064;48.132;11.366;2022-10-31T04:04:37;9.10;99.90
8043;DHT22;4064;48.132;11.366;2022-10-31T04:07:04;9.00;99.90
8043;DHT22;4064;48.132;11.366;2022-10-31T04:09:33;9.00;99.90
8043;DHT22;4064;48.132;11.366;2022-10-31T04:12:01;9.10;99.90
8043;DHT22;4064;48.132;11.366;2022-10-31T04:14:29;9.00;99.90
8043;DHT22;4064;48.132;11.366;2022-10-31T04:16:56;9.00;99.90
8043;DHT22;4064;48.132;11.366;2022-10-31T04:19:22;9.00;99.90
8043;DHT22;4064;48.132;11.366;2022-10-31T04:21:48;9.00;99.90
8043;DHT22;4064;48.132;11.366;2022-10-31T04:24:14;8.90;99.90
8043;DHT22;4064;48.132;11.366;2022-10-31T04:26:39;8.90;99.90
8043;DHT22;4064;48.132;11.366;2022-10-31T04:29:05;8.90;99.90
8043;DHT22;4064;48.132;11.366;2022-10-31T04:31:32;8.90;99.90
8043;DHT22;4064;48.132;11.366;2022-10-31T04:33:58;8.90;99.90
8043;DHT22;4064;48.132;11.366;2022-10-31T04:36:23;8.90;99.90
8043;DHT22;4064;48.132;11.366;2022-10-31T04:38:52;8.90;99.90
8043;DHT22;4064;48.132;11.366;2022-10-31T04:41:17;8.90;99.90
8043;DHT22;4064;48.132;11.366;2022-10-31T04:43:43;8.90;99.90
8043;DHT22;4064;48.132;11.366;2022-10-31T04:46:09;8.80;99.90
8043;DHT22;4064;48.132;11.366;2022-10-31T04:48:34;8.70;99.90
8043;DHT22;4064;48.132;11.366;2022-10-31T04:51:01;8.70;99.90
8043;DHT22;4064;48.132;11.366;2022-10-31T04:53:27;8.70;99.90
8043;DHT22;4064;48.132;11.366;2022-10-31T04:55:53;8.70;99.90
8043;DHT22;4064;48.132;11.366;2022-10-31T04:58:18;8.70;99.90
8043;DHT22;4064;48.132;11.366;2022-10-31T05:00:44;8.70;99.90
8043;DHT22;4064;48.132;11.366;2022-10-31T05:03:10;8.80;99.90
8043;DHT22;4064;48.132;11.366;2022-10-31T05:05:36;8.70;99.90
8043;DHT22;4064;48.132;11.366;2022-10-31T05:08:01;8.70;99.90
8043;DHT22;4064;48.132;11.366;2022-10-31T05:10:29;8.60;99.90
8043;DHT22;4064;48.132;11.366;2022-10-31T05:13:00;8.70;99.90
8043;DHT22;4064;48.132;11.366;2022-10-31T05:15:27;8.60;99.90
8043;DHT22;4064;48.132;11.366;2022-10-31T05:17:53;8.50;99.90
8043;DHT22;4064;48.132;11.366;2022-10-31T05:20:20;8.50;99.90
8043;DHT22;4064;48.132;11.366;2022-10-31T05:22:51;8.60;99.90
8043;DHT22;4064;48.132;11.366;2022-10-31T05:25:17;8.50;99.90
8043;DHT22;4064;48.132;11.366;2022-10-31T05:27:48;8.50;99.90
8043;DHT22;4064;48.132;11.366;2022-10-31T05:30:16;8.50;99.90
8043;DHT22;4064;48.132;11.366;2022-10-31T05:32:45;8.50;99.90
8043;DHT22;4064;48.132;11.366;2022-10-31T05:35:13;8.50;99.90
8043;DHT22;4064;48.132;11.366;2022-10-31T05:37:39;8.50;99.90
8043;DHT22;4064;48.132;11.366;2022-10-31T05:40:07;8.50;99.90
8043;DHT22;4064;48.132;11.366;2022-10-31T05:42:34;8.50;99.90
8043;DHT22;4064;48.132;11.366;2022-10-31T05:44:59;8.50;99.90
8043;DHT22;4064;48.132;11.366;2022-10-31T05:47:25;8.50;99.90
8043;DHT22;4064;48.132;11.366;2022-10-31T05:49:51;8.50;99.90
8043;DHT22;4064;48.132;11.366;2022-10-31T05:52:17;8.50;99.90
8043;DHT22;4064;48.132;11.366;2022-10-31T05:54:43;8.50;99.90
8043;DHT22;4064;48.132;11.366;2022-10-31T05:57:08;8.50;99.90
8043;DHT22;4064;48.132;11.366;2022-10-31T05:59:34;8.50;99.90
8043;DHT22;4064;48.132;11.366;2022-10-31T06:02:00;8.50;99.90
8043;DHT22;4064;48.132;11.366;2022-10-31T06:04:26;8.40;99.90
8043;DHT22;4064;48.132;11.366;2022-10-31T06:06:51;8.40;99.90
8043;DHT22;4064;48.132;11.366;2022-10-31T06:09:17;8.40;99.90
8043;DHT22;4064;48.132;11.366;2022-10-31T06:11:43;8.40;99.90
8043;DHT22;4064;48.132;11.366;2022-10-31T06:14:09;8.40;99.90
8043;DHT22;4064;48.132;11.366;2022-10-31T06:16:34;8.50;99.90
8043;DHT22;4064;48.132;11.366;2022-10-31T06:19:00;8.50;99.90
8043;DHT22;4064;48.132;11.366;2022-10-31T06:21:25;8.50;99.90
8043;DHT22;4064;48.132;11.366;2022-10-31T06:23:51;8.50;99.90
8043;DHT22;4064;48.132;11.366;2022-10-31T06:26:17;8.50;99.90
8043;DHT22;4064;48.132;11.366;2022-10-31T06:28:42;8.50;99.90
8043;DHT22;4064;48.132;11.366;2022-10-31T06:31:08;8.50;99.90
8043;DHT22;4064;48.132;11.366;2022-10-31T06:33:34;8.50;99.90
8043;DHT22;4064;48.132;11.366;2022-10-31T06:36:00;8.50;99.90
8043;DHT22;4064;48.132;11.366;2022-10-31T06:38:29;8.60;99.90
8043;DHT22;4064;48.132;11.366;2022-10-31T06:40:55;8.60;99.90
8043;DHT22;4064;48.132;11.366;2022-10-31T06:43:21;8.60;99.90
8043;DHT22;4064;48.132;11.366;2022-10-31T06:45:47;8.70;99.90
8043;DHT22;4064;48.132;11.366;2022-10-31T06:48:13;8.70;99.90
8043;DHT22;4064;48.132;11.366;2022-10-31T06:50:39;8.70;99.90
8043;DHT22;4064;48.132;11.366;2022-10-31T06:53:04;8.80;99.90
8043;DHT22;4064;48.132;11.366;2022-10-31T06:55:30;8.90;99.90
8043;DHT22;4064;48.132;11.366;2022-10-31T06:57:57;8.90;99.90
8043;DHT22;4064;48.132;11.366;2022-10-31T07:00:25;8.90;99.90
8043;DHT22;4064;48.132;11.366;2022-10-31T07:02:58;9.00;99.90
8043;DHT22;4064;48.132;11.366;2022-10-31T07:05:25;9.10;99.90
8043;DHT22;4064;48.132;11.366;2022-10-31T07:07:59;9.20;99.90
8043;DHT22;4064;48.132;11.366;2022-10-31T07:10:27;9.30;99.90
8043;DHT22;4064;48.132;11.366;2022-10-31T07:13:02;9.40;99.90
8043;DHT22;4064;48.132;11.366;2022-10-31T07:15:30;9.50;99.90
8043;DHT22;4064;48.132;11.366;2022-10-31T07:18:02;9.50;99.90
8043;DHT22;4064;48.132;11.366;2022-10-31T07:20:28;9.60;99.90
8043;DHT22;4064;48.132;11.366;2022-10-31T07:22:54;9.80;99.90
8043;DHT22;4064;48.132;11.366;2022-10-31T07:25:20;9.90;99.90
8043;DHT22;4064;48.132;11.366;2022-10-31T07:27:46;9.90;99.90
8043;DHT22;4064;48.132;11.366;2022-10-31T07:30:13;10.10;99.90
8043;DHT22;4064;48.132;11.366;2022-10-31T07:32:43;10.20;99.90
8043;DHT22;4064;48.132;11.366;2022-10-31T07:35:11;10.30;99.90
8043;DHT22;4064;48.132;11.366;2022-10-31T07:37:37;10.50;99.90
8043;DHT22;4064;48.132;11.366;2022-10-31T07:40:05;10.60;99.90
8043;DHT22;4064;48.132;11.366;2022-10-31T07:42:35;10.80;99.90
8043;DHT22;4064;48.132;11.366;2022-10-31T07:45:01;11.30;99.90
8043;DHT22;4064;48.132;11.366;2022-10-31T07:47:27;12.70;99.90
8043;DHT22;4064;48.132;11.366;2022-10-31T07:49:53;14.40;99.90
8043;DHT22;4064;48.132;11.366;2022-10-31T07:52:18;15.70;99.90
8043;DHT22;4064;48.132;11.366;2022-10-31T07:54:44;17.20;99.90
8043;DHT22;4064;48.132;11.366;2022-10-31T07:57:10;18.20;99.90
8043;DHT22;4064;48.132;11.366;2022-10-31T07:59:36;18.80;99.90
8043;DHT22;4064;48.132;11.366;2022-10-31T08:02:01;19.40;99.90
8043;DHT22;4064;48.132;11.366;2022-10-31T08:04:30;19.90;99.90
8043;DHT22;4064;48.132;11.366;2022-10-31T08:06:56;20.10;99.90
8043;DHT22;4064;48.132;11.366;2022-10-31T08:09:21;20.40;99.90
8043;DHT22;4064;48.132;11.366;2022-10-31T08:11:47;20.30;99.30
8043;DHT22;4064;48.132;11.366;2022-10-31T08:14:13;20.00;99.40
8043;DHT22;4064;48.132;11.366;2022-10-31T08:16:39;19.80;99.50
8043;DHT22;4064;48.132;11.366;2022-10-31T08:19:04;19.50;99.80
8043;DHT22;4064;48.132;11.366;2022-10-31T08:21:30;19.30;99.90
8043;DHT22;4064;48.132;11.366;2022-10-31T08:23:56;19.50;99.90
8043;DHT22;4064;48.132;11.366;2022-10-31T08:26:22;20.00;99.80
8043;DHT22;4064;48.132;11.366;2022-10-31T08:28:47;19.90;99.20
8043;DHT22;4064;48.132;11.366;2022-10-31T08:31:15;20.10;99.50
8043;DHT22;4064;48.132;11.366;2022-10-31T08:33:40;20.70;99.30
8043;DHT22;4064;48.132;11.366;2022-10-31T08:36:06;21.50;98.20
8043;DHT22;4064;48.132;11.366;2022-10-31T08:38:32;22.60;96.40
8043;DHT22;4064;48.132;11.366;2022-10-31T08:40:58;22.60;93.70
8043;DHT22;4064;48.132;11.366;2022-10-31T08:43:24;22.20;94.60
8043;DHT22;4064;48.132;11.366;2022-10-31T08:45:49;22.60;94.20
8043;DHT22;4064;48.132;11.366;2022-10-31T08:48:17;22.80;93.50
8043;DHT22;4064;48.132;11.366;2022-10-31T08:50:44;22.60;92.90
8043;DHT22;4064;48.132;11.366;2022-10-31T08:53:18;22.00;93.20
8043;DHT22;4064;48.132;11.366;2022-10-31T08:55:45;21.60;94.30
8043;DHT22;4064;48.132;11.366;2022-10-31T08:58:16;21.40;94.20
8043;DHT22;4064;48.132;11.366;2022-10-31T09:00:42;21.20;94.30
8043;DHT22;4064;48.132;11.366;2022-10-31T09:03:14;21.00;94.90
8043;DHT22;4064;48.132;11.366;2022-10-31T09:05:40;21.00;94.40
8043;DHT22;4064;48.132;11.366;2022-10-31T09:08:07;20.70;95.10
8043;DHT22;4064;48.132;11.366;2022-10-31T09:10:34;20.30;95.50
8043;DHT22;4064;48.132;11.366;2022-10-31T09:13:18;20.30;96.50
8043;DHT22;4064;48.132;11.366;2022-10-31T09:15:45;20.70;95.80
8043;DHT22;4064;48.132;11.366;2022-10-31T09:18:13;21.30;95.70
8043;DHT22;4064;48.132;11.366;2022-10-31T09:20:40;21.70;94.60
8043;DHT22;4064;48.132;11.366;2022-10-31T09:23:10;22.00;94.10
8043;DHT22;4064;48.132;11.366;2022-10-31T09:25:36;21.80;93.60
8043;DHT22;4064;48.132;11.366;2022-10-31T09:28:04;21.40;93.30
8043;DHT22;4064;48.132;11.366;2022-10-31T09:30:32;21.10;93.90
8043;DHT22;4064;48.132;11.366;2022-10-31T09:33:00;20.80;94.30
8043;DHT22;4064;48.132;11.366;2022-10-31T09:35:26;20.50;94.50
8043;DHT22;4064;48.132;11.366;2022-10-31T09:37:59;20.30;95.30
8043;DHT22;4064;48.132;11.366;2022-10-31T09:40:34;20.20;95.20
8043;DHT22;4064;48.132;11.366;2022-10-31T09:43:07;20.20;95.40
8043;DHT22;4064;48.132;11.366;2022-10-31T09:51:43;20.20;95.00
8043;DHT22;4064;48.132;11.366;2022-10-31T09:54:17;20.40;95.30
8043;DHT22;4064;48.132;11.366;2022-10-31T09:56:44;20.60;93.70
8043;DHT22;4064;48.132;11.366;2022-10-31T09:59:33;20.90;92.80
8043;DHT22;4064;48.132;11.366;2022-10-31T10:07:14;20.50;93.20
8043;DHT22;4064;48.132;11.366;2022-10-31T10:09:42;20.40;92.70
8043;DHT22;4064;48.132;11.366;2022-10-31T10:18:04;20.30;93.80
8043;DHT22;4064;48.132;11.366;2022-10-31T10:23:51;20.30;93.60
8043;DHT22;4064;48.132;11.366;2022-10-31T10:26:21;20.30;94.20
8043;DHT22;4064;48.132;11.366;2022-10-31T10:29:32;20.40;93.70
8043;DHT22;4064;48.132;11.366;2022-10-31T10:31:59;20.40;92.90
8043;DHT22;4064;48.132;11.366;2022-10-31T10:37:00;20.50;93.20
8043;DHT22;4064;48.132;11.366;2022-10-31T10:39:40;20.40;91.90
8043;DHT22;4064;48.132;11.366;2022-10-31T10:42:14;20.40;91.40
8043;DHT22;4064;48.132;11.366;2022-10-31T10:45:00;20.40;91.30
8043;DHT22;4064;48.132;11.366;2022-10-31T10:47:56;20.40;91.90
8043;DHT22;4064;48.132;11.366;2022-10-31T10:50:34;20.40;91.50
8043;DHT22;4064;48.132;11.366;2022-10-31T10:56:26;20.40;90.30
8043;DHT22;4064;48.132;11.366;2022-10-31T10:58:56;20.30;90.70
8043;DHT22;4064;48.132;11.366;2022-10-31T11:01:27;20.30;91.40
8043;DHT22;4064;48.132;11.366;2022-10-31T11:03:52;20.20;89.90
8043;DHT22;4064;48.132;11.366;2022-10-31T11:06:27;20.20;90.40
8043;DHT22;4064;48.132;11.366;2022-10-31T11:08:53;20.10;90.40
8043;DHT22;4064;48.132;11.366;2022-10-31T11:11:32;20.10;90.70
8043;DHT22;4064;48.132;11.366;2022-10-31T11:14:05;20.20;90.10
8043;DHT22;4064;48.132;11.366;2022-10-31T11:16:39;20.20;90.70
8043;DHT22;4064;48.132;11.366;2022-10-31T11:19:13;20.20;90.50
8043;DHT22;4064;48.132;11.366;2022-10-31T11:21:42;20.20;90.10
8043;DHT22;4064;48.132;11.366;2022-10-31T11:26:41;20.40;91.30
8043;DHT22;4064;48.132;11.366;2022-10-31T11:29:20;20.40;90.60
8043;DHT22;4064;48.132;11.366;2022-10-31T11:31:46;20.40;89.40
8043;DHT22;4064;48.132;11.366;2022-10-31T11:34:37;20.40;89.40
8043;DHT22;4064;48.132;11.366;2022-10-31T11:37:20;20.40;89.20
8043;DHT22;4064;48.132;11.366;2022-10-31T11:39:53;20.50;87.70
8043;DHT22;4064;48.132;11.366;2022-10-31T11:42:27;20.50;86.70
8043;DHT22;4064;48.132;11.366;2022-10-31T11:44:55;20.60;87.70
8043;DHT22;4064;48.132;11.366;2022-10-31T11:47:27;20.80;87.70
8043;DHT22;4064;48.132;11.366;2022-10-31T11:49:55;21.10;87.20
8043;DHT22;4064;48.132;11.366;2022-10-31T11:52:29;21.30;87.30
8043;DHT22;4064;48.132;11.366;2022-10-31T11:55:13;21.40;86.00
8043;DHT22;4064;48.132;11.366;2022-10-31T11:57:47;21.40;85.80
8043;DHT22;4064;48.132;11.366;2022-10-31T12:02:48;21.10;84.70
8043;DHT22;4064;48.132;11.366;2022-10-31T12:05:21;20.90;87.30
8043;DHT22;4064;48.132;11.366;2022-10-31T12:07:48;20.70;84.90
8043;DHT22;4064;48.132;11.366;2022-10-31T12:10:15;20.50;85.20
8043;DHT22;4064;48.132;11.366;2022-10-31T12:15:45;20.30;84.90
8043;DHT22;4064;48.132;11.366;2022-10-31T12:26:45;20.10;84.70
8043;DHT22;4064;48.132;11.366;2022-10-31T12:29:21;20.10;84.20
8043;DHT22;4064;48.132;11.366;2022-10-31T12:37:42;20.40;84.10
8043;DHT22;4064;48.132;11.366;2022-10-31T12:45:53;20.70;82.00
8043;DHT22;4064;48.132;11.366;2022-10-31T12:48:42;20.90;81.90
8043;DHT22;4064;48.132;11.366;2022-10-31T13:02:20;22.00;78.10
8043;DHT22;4064;48.132;11.366;2022-10-31T13:07:36;22.30;77.20
8043;DHT22;4064;48.132;11.366;2022-10-31T13:12:33;22.30;76.50
8043;DHT22;4064;48.132;11.366;2022-10-31T13:17:49;22.10;76.10
8043;DHT22;4064;48.132;11.366;2022-10-31T13:22:52;21.70;76.00
8043;DHT22;4064;48.132;11.366;2022-10-31T13:25:28;21.40;76.60
8043;DHT22;4064;48.132;11.366;2022-10-31T13:28:54;21.20;77.80
8043;DHT22;4064;48.132;11.366;2022-10-31T13:31:00;20.90;79.40
8043;DHT22;4064;48.132;11.366;2022-10-31T13:33:55;20.60;81.40
8043;DHT22;4064;48.132;11.366;2022-10-31T13:36:39;20.40;80.40
8043;DHT22;4064;48.132;11.366;2022-10-31T13:39:21;20.20;80.90
8043;DHT22;4064;48.132;11.366;2022-10-31T13:44:35;19.90;82.80
8043;DHT22;4064;48.132;11.366;2022-10-31T13:47:24;19.80;83.70
8043;DHT22;4064;48.132;11.366;2022-10-31T13:49:50;19.70;84.30
8043;DHT22;4064;48.132;11.366;2022-10-31T13:52:24;19.70;83.80
8043;DHT22;4064;48.132;11.366;2022-10-31T13:54:51;19.70;84.10
8043;DHT22;4064;48.132;11.366;2022-10-31T13:57:42;19.60;85.20
8043;DHT22;4064;48.132;11.366;2022-10-31T14:02:48;19.50;86.10
8043;DHT22;4064;48.132;11.366;2022-10-31T14:05:25;19.60;86.10
8043;DHT22;4064;48.132;11.366;2022-10-31T14:07:53;19.70;86.30
8043;DHT22;4064;48.132;11.366;2022-10-31T14:10:33;19.80;86.00
8043;DHT22;4064;48.132;11.366;2022-10-31T14:13:26;19.90;86.40
8043;DHT22;4064;48.132;11.366;2022-10-31T14:15:59;19.80;86.00
8043;DHT22;4064;48.132;11.366;2022-10-31T14:18:39;19.70;85.70
8043;DHT22;4064;48.132;11.366;2022-10-31T14:23:48;19.60;87.60
8043;DHT22;4064;48.132;11.366;2022-10-31T14:28:57;19.50;87.60
8043;DHT22;4064;48.132;11.366;2022-10-31T14:37:08;19.30;88.70
8043;DHT22;4064;48.132;11.366;2022-10-31T14:50:50;18.90;90.90
8043;DHT22;4064;48.132;11.366;2022-10-31T14:55:51;18.80;91.70
8043;DHT22;4064;48.132;11.366;2022-10-31T14:58:45;18.60;91.40
8043;DHT22;4064;48.132;11.366;2022-10-31T15:01:32;18.60;92.00
8043;DHT22;4064;48.132;11.366;2022-10-31T15:04:13;18.40;93.00
8043;DHT22;4064;48.132;11.366;2022-10-31T15:06:47;18.40;92.80
8043;DHT22;4064;48.132;11.366;2022-10-31T15:09:30;18.30;93.40
8043;DHT22;4064;48.132;11.366;2022-10-31T15:11:58;18.20;93.90
8043;DHT22;4064;48.132;11.366;2022-10-31T15:14:27;18.10;93.50
8043;DHT22;4064;48.132;11.366;2022-10-31T15:16:53;18.10;93.90
8043;DHT22;4064;48.132;11.366;2022-10-31T15:19:27;18.00;94.20
8043;DHT22;4064;48.132;11.366;2022-10-31T15:21:56;18.00;94.70
8043;DHT22;4064;48.132;11.366;2022-10-31T15:24:24;17.90;94.90
8043;DHT22;4064;48.132;11.366;2022-10-31T15:26:54;17.80;94.60
8043;DHT22;4064;48.132;11.366;2022-10-31T15:29:23;17.80;94.90
8043;DHT22;4064;48.132;11.366;2022-10-31T15:31:53;17.70;95.40
8043;DHT22;4064;48.132;11.366;2022-10-31T15:36:59;17.30;96.60
8043;DHT22;4064;48.132;11.366;2022-10-31T15:39:25;17.20;97.30
8043;DHT22;4064;48.132;11.366;2022-10-31T15:41:58;17.10;97.60
8043;DHT22;4064;48.132;11.366;2022-10-31T15:44:36;17.00;98.30
8043;DHT22;4064;48.132;11.366;2022-10-31T15:47:16;16.90;98.80
8043;DHT22;4064;48.132;11.366;2022-10-31T15:49:54;16.90;99.70
8043;DHT22;4064;48.132;11.366;2022-10-31T15:52:28;16.70;99.90
8043;DHT22;4064;48.132;11.366;2022-10-31T15:55:05;16.70;99.90
8043;DHT22;4064;48.132;11.366;2022-10-31T15:57:51;16.50;99.90
8043;DHT22;4064;48.132;11.366;2022-10-31T16:02:49;16.30;99.90
8043;DHT22;4064;48.132;11.366;2022-10-31T16:05:17;16.20;99.90
8043;DHT22;4064;48.132;11.366;2022-10-31T16:07:51;16.10;99.90
8043;DHT22;4064;48.132;11.366;2022-10-31T16:10:27;16.00;99.90
8043;DHT22;4064;48.132;11.366;2022-10-31T16:12:53;15.90;99.90
8043;DHT22;4064;48.132;11.366;2022-10-31T16:15:20;15.80;99.90
8043;DHT22;4064;48.132;11.366;2022-10-31T16:17:50;15.70;99.90
8043;DHT22;4064;48.132;11.366;2022-10-31T16:20:21;15.60;99.90
8043;DHT22;4064;48.132;11.366;2022-10-31T16:22:49;15.40;99.90
8043;DHT22;4064;48.132;11.366;2022-10-31T16:25:39;15.30;99.90
8043;DHT22;4064;48.132;11.366;2022-10-31T16:28:14;15.20;99.90
8043;DHT22;4064;48.132;11.366;2022-10-31T16:30:43;15.00;99.90
8043;DHT22;4064;48.132;11.366;2022-10-31T16:33:31;14.90;99.90
8043;DHT22;4064;48.132;11.366;2022-10-31T16:38:49;14.60;99.90
8043;DHT22;4064;48.132;11.366;2022-10-31T16:41:14;14.50;99.90
8043;DHT22;4064;48.132;11.366;2022-10-31T16:43:40;14.40;99.90
8043;DHT22;4064;48.132;11.366;2022-10-31T16:46:08;14.30;99.90
8043;DHT22;4064;48.132;11.366;2022-10-31T16:48:37;14.20;99.90
8043;DHT22;4064;48.132;11.366;2022-10-31T16:51:03;14.10;99.90
8043;DHT22;4064;48.132;11.366;2022-10-31T16:53:29;14.00;99.90
8043;DHT22;4064;48.132;11.366;2022-10-31T16:55:57;14.00;99.90
8043;DHT22;4064;48.132;11.366;2022-10-31T16:58:26;13.90;99.90
8043;DHT22;4064;48.132;11.366;2022-10-31T17:00:56;13.80;99.90
8043;DHT22;4064;48.132;11.366;2022-10-31T17:03:22;13.70;99.90
8043;DHT22;4064;48.132;11.366;2022-10-31T17:05:48;13.60;99.90
8043;DHT22;4064;48.132;11.366;2022-10-31T17:08:14;13.50;99.90
8043;DHT22;4064;48.132;11.366;2022-10-31T17:10:40;13.40;99.90
8043;DHT22;4064;48.132;11.366;2022-10-31T17:13:12;13.40;99.90
8043;DHT22;4064;48.132;11.366;2022-10-31T17:15:45;13.40;99.90
8043;DHT22;4064;48.132;11.366;2022-10-31T17:18:13;13.30;99.90
8043;DHT22;4064;48.132;11.366;2022-10-31T17:20:40;13.20;99.90
8043;DHT22;4064;48.132;11.366;2022-10-31T17:23:06;13.20;99.90
8043;DHT22;4064;48.132;11.366;2022-10-31T17:25:33;13.00;99.90
8043;DHT22;4064;48.132;11.366;2022-10-31T17:28:00;13.00;99.90
8043;DHT22;4064;48.132;11.366;2022-10-31T17:30:26;12.90;99.90
8043;DHT22;4064;48.132;11.366;2022-10-31T17:32:52;12.90;99.90
8043;DHT22;4064;48.132;11.366;2022-10-31T17:35:18;12.90;99.90
8043;DHT22;4064;48.132;11.366;2022-10-31T17:37:45;12.80;99.90
8043;DHT22;4064;48.132;11.366;2022-10-31T17:40:13;12.70;99.90
8043;DHT22;4064;48.132;11.366;2022-10-31T17:42:39;12.70;99.90
8043;DHT22;4064;48.132;11.366;2022-10-31T17:45:05;12.60;99.90
8043;DHT22;4064;48.132;11.366;2022-10-31T17:47:32;12.60;99.90
8043;DHT22;4064;48.132;11.366;2022-10-31T17:49:57;12.50;99.90
8043;DHT22;4064;48.132;11.366;2022-10-31T17:52:23;12.50;99.90
8043;DHT22;4064;48.132;11.366;2022-10-31T17:54:49;12.40;99.90
8043;DHT22;4064;48.132;11.366;2022-10-31T17:57:15;12.40;99.90
8043;DHT22;4064;48.132;11.366;2022-10-31T17:59:41;12.40;99.90
8043;DHT22;4064;48.132;11.366;2022-10-31T18:02:11;12.20;99.90
8043;DHT22;4064;48.132;11.366;2022-10-31T18:04:37;12.20;99.90
8043;DHT22;4064;48.132;11.366;2022-10-31T18:07:04;12.20;99.90
8043;DHT22;4064;48.132;11.366;2022-10-31T18:09:30;12.10;99.90
8043;DHT22;4064;48.132;11.366;2022-10-31T18:11:56;12.10;99.90
8043;DHT22;4064;48.132;11.366;2022-10-31T18:14:22;12.00;99.90
8043;DHT22;4064;48.132;11.366;2022-10-31T18:16:47;12.00;99.90
8043;DHT22;4064;48.132;11.366;2022-10-31T18:19:15;11.90;99.90
8043;DHT22;4064;48.132;11.366;2022-10-31T18:21:41;11.90;99.90
8043;DHT22;4064;48.132;11.366;2022-10-31T18:24:09;11.90;99.90
8043;DHT22;4064;48.132;11.366;2022-10-31T18:26:35;11.80;99.90
8043;DHT22;4064;48.132;11.366;2022-10-31T18:29:01;11.80;99.90